Portada
METAR-TAF:

METAR-TAF

Aeroports :

Al-Kuwait, Kuwait

latitud: 29-13N, longitud: 047-59E, altitud: 55 m

Observació

L'informe es va fer fa 38 minuts, a les 22:00 UTC
Vent 9 kt del Sud/Sud-Est
Temperatura 21°C
Humitat 73%
Pressió 1016 hPa
Visibilitat: 5000 m
Núvols disperses a una alçada de 4000 ft
Cel ennuvolat a una alçada de 8000 ft
pluja

METAR: OKBK 062200Z 15009KT 5000 -RA SCT040 BKN080 21/16 Q1016 NOSIG

Hora: 01:38 (22:38 UTC)

Pronòstic

L'informe es va fer fa 5 hores i 53 minuts, a les 16:45 UTC
Pronòstic vàlid del 06 a les 18 UTC al 07 a les 24 UTC
Vent 12 kt del Sud/Sud-Est amb ràfegues de 25 kt
Visibilitat: 7000 m
Núvols disperses a una alçada de 4000 ft
Cel ennuvolat a una alçada de 8000 ft
Temporalment
l' 06 a les 18 UTC al 07 a les 07 UTC
Visibilitat: 3000 m
Escasses núvols a una alçada de 3000 ft, Cumulonimbus.
tempesta, pluja

TAF: OKBK 061645Z 0618/0724 16012G25KT 7000 SCT040 BKN080 TEMPO 0618/0707 3000 TSRA FEW030CB

Observacions i pronòstics meteorològics de més de 4000 aeroports (METAR i TAF).

Les estacions disponibles són els punts grocs i vermells al mapa.

Posi el ratolí al punt desitjat per veure el nom de l'estació.

Feu clic per veure les observacions i els pronòstics meteorològics.

Per canviar el mapa: feu clic els botons verds amb una creu de color negre per apropar; al botó verd amb un guió per allunyar la imatge; o en les fletxes verdes per a mapes adjacents.


METAR-TAF: